Aeroporto :
LOGIN :

Iscrizione | Disclaimer

   EN    FR    IT 

 










Sommario :    VFR   VFR Marginale   IFR   IFR Intensivo   IFR Molto Intensivo
Visibilità : 
Base nubi : 
>= 8 km
>= 3000ft
5 / 8 km
1000 / 3000 ft
1500m / 5 km
500 / 1000 ft
800 / 1500m
200 / 500 ft
< 800m
< 200 ft
Simboli :   Temporali  Nebbia  Neve Forte  Precipitazioni Forti  Vento > 20 kt
SIGMETs :   Varie  Temporali  Ghiacco  Turbolenza  Onda orograficha  Ceneri Vulcaniche






- Altitudine del aeroporto : 74 ft
- Codice IATA : NDZ


ETMN - Cuxhaven Nordholz Sea AB

ULTIMO METAR :
  • 232220Z 11006KT 5000 BR SCT150 11/10 Q1010 WHT

METARs OBSOLETI :
  • 232120Z 11006KT 6000 FEW150 11/10 Q1011 WHT
  • 232020Z 12007KT 9000 FEW150 11/10 Q1011 BLU+

TAF AMD TAF ETMN
Valido dal 23 a 18 ore il 24 a 02 ore UTC


231825Z 2318/2402 11005KT 8000 NSW FEW012 SCT090
BECMG 2319/2321 12004KT 2500 BR SCT004 SCT120
BECMG 2321/2322 10003KT 1500 BR BKN003
TEMPO 2322/2402 11002KT 0400 FG BKN001



MetMap, La meteo Aeronautica in un colpo d'occhio ! - Copyright ORBIFLY Dicembre 2007 - Disclaimer

ORBIFLY MET'MAP TEAM :

Programmazione e sviluppo : Alexandra Zaïnal
Concezione e sviluppo : Baudouin d'Aumeries
Co-Programmazione e sviluppo : Marc-Olivier Méhu
Supporto tecnico e logistico : Manuel Goepfert
Aiuto per la traduzione : Arnaldo La Scala

Contatto : metmap@orbifly.com




FONTI E CREDITI :

   NOAA